createdAt,value
2022-10-03T00:03:43.940Z,1.77
2022-10-03T00:14:21.578Z,0.40
2022-10-03T00:24:57.647Z,0.43
2022-10-03T00:35:02.881Z,0.25
2022-10-03T00:45:55.896Z,0.68
2022-10-03T00:56:07.925Z,0.25
2022-10-03T01:06:16.657Z,0.85
2022-10-03T01:16:59.377Z,0.50
2022-10-03T01:27:11.110Z,0.73
2022-10-03T01:37:44.211Z,1.27
2022-10-03T01:47:51.910Z,1.15
2022-10-03T01:58:23.287Z,1.40
2022-10-03T02:08:25.494Z,2.03
2022-10-03T02:18:52.992Z,4.57
2022-10-03T02:29:09.090Z,4.62
2022-10-03T02:39:33.838Z,4.28
2022-10-03T02:49:58.400Z,5.95
2022-10-03T03:00:09.791Z,4.07
2022-10-03T03:10:28.224Z,4.47
2022-10-03T03:20:33.794Z,3.87
2022-10-03T03:30:48.859Z,4.32
2022-10-03T03:41:45.588Z,4.87
2022-10-03T03:52:06.570Z,3.80
2022-10-03T04:02:15.455Z,7.60
2022-10-03T04:12:32.473Z,3.20
2022-10-03T04:22:35.452Z,6.43
2022-10-03T04:33:04.747Z,4.75
2022-10-03T04:43:16.141Z,4.70
2022-10-03T04:53:34.891Z,8.25
2022-10-03T05:03:58.879Z,5.30
2022-10-03T05:14:28.538Z,6.90
2022-10-03T05:24:39.780Z,6.80
2022-10-03T05:35:06.736Z,8.05
2022-10-03T05:45:29.714Z,5.82
2022-10-03T05:55:37.998Z,7.07
2022-10-03T06:06:01.748Z,7.62
2022-10-03T06:16:30.731Z,9.05
2022-10-03T06:26:51.031Z,11.20
2022-10-03T06:37:13.037Z,15.02
2022-10-03T06:48:03.377Z,12.15
2022-10-03T06:58:35.404Z,14.07
2022-10-03T07:08:45.817Z,15.65
2022-10-03T07:18:55.383Z,16.40
2022-10-03T07:29:09.856Z,11.35
2022-10-03T07:39:57.288Z,10.15
2022-10-03T07:50:23.534Z,8.52
2022-10-03T08:00:30.212Z,10.93
2022-10-03T08:10:36.210Z,9.68
2022-10-03T08:20:55.666Z,8.63
2022-10-03T08:31:09.995Z,9.80
2022-10-03T08:41:41.114Z,9.73
2022-10-03T08:52:14.693Z,8.73
2022-10-03T09:02:40.363Z,10.07
2022-10-03T09:13:12.959Z,7.57
2022-10-03T09:23:18.669Z,7.68
2022-10-03T09:34:00.026Z,5.62
2022-10-03T09:44:34.836Z,6.20
2022-10-03T09:54:44.468Z,5.57
2022-10-03T10:05:00.251Z,5.87
2022-10-03T10:15:21.458Z,5.32
2022-10-03T10:25:50.565Z,5.62
2022-10-03T10:36:30.764Z,4.57
2022-10-03T10:47:18.694Z,5.55
2022-10-03T10:58:01.811Z,4.47
2022-10-03T11:08:14.045Z,5.18
2022-10-03T11:18:44.377Z,4.53
2022-10-03T11:29:17.724Z,5.72
2022-10-03T11:39:35.626Z,6.25
2022-10-03T11:50:07.031Z,5.75
2022-10-03T12:00:23.486Z,3.50
2022-10-03T12:10:56.497Z,5.75
2022-10-03T12:21:17.347Z,3.72
2022-10-03T12:31:36.656Z,4.95
2022-10-03T12:41:51.240Z,2.97
2022-10-03T12:52:01.077Z,3.87
2022-10-03T13:02:20.378Z,3.17
2022-10-03T13:12:39.759Z,3.47
2022-10-03T13:22:57.292Z,2.10
2022-10-03T13:33:18.804Z,1.70
2022-10-03T13:43:28.689Z,1.25
2022-10-03T13:54:07.628Z,1.60
2022-10-03T14:04:38.131Z,1.40
2022-10-03T14:15:02.404Z,1.70
2022-10-03T14:25:26.883Z,1.62
2022-10-03T14:36:01.966Z,1.57
2022-10-03T14:46:07.077Z,1.90
2022-10-03T14:56:13.634Z,1.27
2022-10-03T15:06:36.129Z,1.20
2022-10-03T15:16:50.099Z,2.00
2022-10-03T15:27:02.206Z,1.30
2022-10-03T15:37:24.761Z,1.23
2022-10-03T15:47:29.998Z,1.80
2022-10-03T15:57:37.286Z,1.33
2022-10-03T16:07:52.135Z,0.93
2022-10-03T16:18:06.248Z,0.80
2022-10-03T16:28:14.812Z,2.85
2022-10-03T16:38:27.149Z,1.45
2022-10-03T16:48:51.917Z,2.15
2022-10-03T16:58:59.049Z,3.03
2022-10-03T17:09:16.728Z,4.93
2022-10-03T17:19:44.843Z,2.60
2022-10-03T17:30:02.514Z,2.35
2022-10-03T17:40:17.035Z,3.55
2022-10-03T17:50:54.548Z,2.75
2022-10-03T18:01:07.148Z,2.47
2022-10-03T18:11:10.729Z,1.75
2022-10-03T18:21:47.017Z,2.75
2022-10-03T18:31:57.837Z,2.58
2022-10-03T18:42:02.724Z,2.75
2022-10-03T19:02:20.507Z,5.05
2022-10-03T19:12:24.211Z,4.70
2022-10-03T19:22:55.534Z,3.12
2022-10-03T19:33:08.874Z,3.55
2022-10-03T19:43:36.472Z,9.17
2022-10-03T19:53:43.941Z,5.53
2022-10-03T20:03:52.995Z,2.87
2022-10-03T20:14:29.453Z,8.03
2022-10-03T20:24:41.507Z,6.27
2022-10-03T20:34:53.137Z,4.17
2022-10-03T20:45:14.655Z,4.33
2022-10-03T20:55:25.952Z,6.43
2022-10-03T21:05:34.799Z,4.30
2022-10-03T21:15:47.829Z,3.30
2022-10-03T21:25:54.790Z,6.57
2022-10-03T21:36:09.637Z,5.50
2022-10-03T21:46:17.451Z,8.75
2022-10-03T21:56:48.774Z,4.60
2022-10-03T22:07:09.714Z,6.23
2022-10-03T22:17:30.701Z,3.90
2022-10-03T22:27:52.039Z,5.37
2022-10-03T22:37:56.507Z,4.73
2022-10-03T22:48:05.207Z,11.93
2022-10-03T22:58:08.806Z,4.03
2022-10-03T23:08:17.020Z,4.70
2022-10-03T23:18:28.421Z,4.00
2022-10-03T23:28:46.128Z,4.13
2022-10-03T23:38:48.465Z,8.13
2022-10-03T23:49:02.369Z,4.60
2022-10-03T23:59:05.235Z,7.63
